Eben Junction, Michigan
Current Conditions -  °F | °C
As of 1:56 AM on Thursday 23 Oct 2014 (Local Time) from KSAW Reporting Station
Haze Haze  
Wind Chill: 26°   Ceiling: 200
Heat Index: 34°   Visibility: 5mi
Dew Point: 33°   Wind: 12mph
Humidity: 97%   Direction: 190°S
Pressure: 30.18"   Gusts: NA
Location:  46.35°N, 86.97°W
Report Text: KSAW 230556Z AUTO 19010KT 5SM BR OVC002 01/01 A3018 RMK AO2 LTG DSNT W T00130008 10042 20007 401021056
Loading
Personal Weather Stations






























Interactive Weather Map
Tropical Storm Tracking
New forecast layout! Learn more

10-Day Weather Forecast

Advertisements
Track Severe Weather on mobile